Time;durP1;ratioP1;P1;durP2;ratioP2;P2;SDS_P1;SDS_P2;PMS_P1;PMS_P2;Temp;Humidity;BMP_temperature;BMP_pressure;BME280_temperature;BME280_humidity;BME280_pressure;Samples;Min_cycle;Max_cycle;Signal;HPM_P1;HPM_P2
2021/07/02 00:01:40;;;;;;;;;;;;;;;21.25;64.23;99828.19;5057137;28;858;-42
2021/07/02 00:04:05;;;;;;;;;;;;;;;21.28;64.14;99827.53;5057060;28;833;-42
2021/07/02 00:06:31;;;;;;;;;;;;;;;21.16;60.96;99826.25;5057353;28;876;-41
2021/07/02 00:08:56;;;;;;;;;;;;;;;20.75;60.54;99835.88;5057250;28;744;-43
2021/07/02 00:11:22;;;;;;;;;;;;;;;20.93;63.85;99833.09;5056505;28;852;-42
2021/07/02 00:13:47;;;;;;;;;;;;;;;21.38;64.60;99829.97;5056743;28;998;-44
2021/07/02 00:16:12;;;;;;;;;;;;;;;21.85;63.51;99830.00;5057081;28;495;-42
2021/07/02 00:18:38;;;;;;;;;;;;;;;21.85;63.28;99832.75;5038852;28;1963;-42
2021/07/02 00:21:03;;;;;;;;;;;;;;;21.60;64.06;99823.44;5056858;28;856;-43
2021/07/02 00:23:29;;;;;;;;;;;;;;;21.39;64.64;99823.28;5056782;28;816;-44
2021/07/02 00:25:54;;;;;;;;;;;;;;;21.27;60.76;99832.25;5056363;28;1156;-41
2021/07/02 00:28:20;;;;;;;;;;;;;;;20.75;59.67;99827.59;5056921;28;744;-42
2021/07/02 00:30:45;;;;;;;;;;;;;;;21.13;62.41;99818.63;5056278;28;979;-42
2021/07/02 00:33:10;;;;;;;;;;;;;;;21.57;63.48;99803.91;5056311;28;780;-42
2021/07/02 00:35:36;;;;;;;;;;;;;;;21.87;64.01;99796.44;5056751;28;756;-43
2021/07/02 00:38:01;;;;;;;;;;;;;;;21.81;63.96;99801.38;5056563;28;791;-42
2021/07/02 00:40:27;;;;;;;;;;;;;;;21.83;62.49;99807.38;5056069;28;1906;-42
2021/07/02 00:42:53;;;;;;;;;;;;;;;21.25;62.88;99800.53;5056638;28;812;-42
2021/07/02 00:45:18;;;;;;;;;;;;;;;21.16;63.54;99817.16;5037397;28;947;-42
2021/07/02 00:47:44;;;;;;;;;;;;;;;20.80;61.08;99808.09;5056318;28;816;-42
2021/07/02 00:50:10;;;;;;;;;;;;;;;20.87;62.17;99812.31;5039010;28;1135;-42
2021/07/02 00:52:36;;;;;;;;;;;;;;;20.91;63.70;99818.81;5021938;28;768;-43
2021/07/02 00:55:02;;;;;;;;;;;;;;;21.33;61.75;99819.06;5038306;28;789;-41
2021/07/02 00:57:27;;;;;;;;;;;;;;;21.26;61.32;99824.28;5038766;28;1182;-43
2021/07/02 00:59:53;;;;;;;;;;;;;;;21.28;60.98;99827.53;5037963;28;1914;-41
2021/07/02 01:02:19;;;;;;;;;;;;;;;21.24;60.99;99848.69;5055437;28;772;-43
2021/07/02 01:04:44;;;;;;;;;;;;;;;20.84;62.13;99846.94;5056197;28;784;-42
2021/07/02 01:07:11;;;;;;;;;;;;;;;20.91;61.59;99857.50;5038483;28;1405;-43
2021/07/02 01:09:38;;;;;;;;;;;;;;;20.72;59.72;99883.50;5055875;28;775;-43
2021/07/02 01:12:04;;;;;;;;;;;;;;;20.48;61.59;99900.47;5038284;28;756;-43
2021/07/02 01:14:29;;;;;;;;;;;;;;;20.89;61.84;99917.78;5038093;28;1189;-42
2021/07/02 01:16:56;;;;;;;;;;;;;;;20.94;62.06;99917.66;5038328;28;1249;-42
2021/07/02 01:19:23;;;;;;;;;;;;;;;21.10;61.93;99934.56;5038310;28;1985;-42
2021/07/02 01:21:49;;;;;;;;;;;;;;;21.33;61.10;99946.28;5055846;28;824;-42
2021/07/02 01:24:16;;;;;;;;;;;;;;;20.83;61.87;99956.66;5038026;28;1226;-43
2021/07/02 01:26:42;;;;;;;;;;;;;;;20.60;60.42;99966.97;5056075;28;776;-42
2021/07/02 01:29:10;;;;;;;;;;;;;;;20.07;59.64;99971.44;5022125;28;1296;-42
2021/07/02 01:31:36;;;;;;;;;;;;;;;19.95;59.07;99982.25;5055651;28;821;-43
2021/07/02 01:34:01;;;;;;;;;;;;;;;20.11;56.89;99997.28;5056005;28;827;-41
2021/07/02 01:36:27;;;;;;;;;;;;;;;20.24;55.46;100012.13;5055795;28;780;-41
2021/07/02 01:38:58;;;;;;;;;;;;;;;19.99;55.26;100008.94;5055608;28;1913;-41
2021/07/02 01:41:25;;;;;;;;;;;;;;;20.25;53.75;100018.47;5038106;28;1106;-42
2021/07/02 01:43:52;;;;;;;;;;;;;;;20.22;53.34;100019.13;5037565;28;1355;-44
2021/07/02 01:46:17;;;;;;;;;;;;;;;20.25;52.87;100024.81;5038000;28;1205;-43
2021/07/02 01:48:44;;;;;;;;;;;;;;;20.05;55.31;100026.16;5037982;28;1371;-43
2021/07/02 01:51:11;;;;;;;;;;;;;;;20.32;56.76;100030.69;5037785;28;1219;-42
2021/07/02 01:53:38;;;;;;;;;;;;;;;20.44;58.08;100032.88;5037615;28;1159;-42
2021/07/02 01:56:05;;;;;;;;;;;;;;;20.76;58.53;100043.91;5055900;28;831;-42
2021/07/02 01:58:32;;;;;;;;;;;;;;;20.81;59.27;100047.31;5037997;28;1897;-42
2021/07/02 02:01:12;;;;;;;;;;;;;;;20.76;60.31;100041.97;5037831;28;1053;-42
2021/07/02 02:03:39;;;;;;;;;;;;;;;21.16;59.70;100036.34;5037568;28;1167;-42
2021/07/02 02:06:04;;;;;;;;;;;;;;;21.07;60.54;100043.84;5038124;28;1328;-42
2021/07/02 02:08:31;;;;;;;;;;;;;;;20.97;60.88;100044.13;5037769;28;1258;-42
2021/07/02 02:10:59;;;;;;;;;;;;;;;20.72;62.27;100045.66;5037855;28;1301;-43
2021/07/02 02:13:30;;;;;;;;;;;;;;;20.59;60.81;100058.44;5059135;28;797;-44
2021/07/02 02:16:06;;;;;;;;;;;;;;;20.61;62.10;100058.94;5058981;28;875;-42
2021/07/02 02:18:32;;;;;;;;;;;;;;;20.94;62.65;100075.16;5041565;28;2222;-42
2021/07/02 02:20:58;;;;;;;;;;;;;;;21.31;61.23;100076.56;5059458;28;791;-42
2021/07/02 02:23:24;;;;;;;;;;;;;;;21.39;60.92;100085.19;5041344;28;1205;-41
2021/07/02 02:25:50;;;;;;;;;;;;;;;21.04;60.56;100096.97;5041256;28;1018;-43
2021/07/02 02:28:16;;;;;;;;;;;;;;;20.88;59.23;100102.13;5041372;28;831;-42
2021/07/02 02:30:42;;;;;;;;;;;;;;;20.62;58.00;100093.69;5058387;28;951;-42
2021/07/02 02:33:11;;;;;;;;;;;;;;;20.70;56.06;100098.47;5041111;28;1143;-42
2021/07/02 02:35:38;;;;;;;;;;;;;;;20.69;54.65;100096.84;5059348;28;791;-42
2021/07/02 02:38:04;;;;;;;;;;;;;;;20.45;54.48;100106.28;5040963;28;1207;-43
2021/07/02 02:40:32;;;;;;;;;;;;;;;20.43;53.89;100105.78;5041278;28;1971;-41
2021/07/02 02:42:57;;;;;;;;;;;;;;;20.44;54.10;100118.47;5058690;28;792;-41
2021/07/02 02:45:23;;;;;;;;;;;;;;;20.55;54.63;100132.00;5040580;28;1211;-41
2021/07/02 02:47:49;;;;;;;;;;;;;;;20.44;56.86;100134.22;5058975;28;760;-41
2021/07/02 02:50:15;;;;;;;;;;;;;;;20.72;57.76;100142.38;5058824;28;808;-42
2021/07/02 02:52:41;;;;;;;;;;;;;;;20.80;58.77;100142.44;5058163;28;780;-43
2021/07/02 02:55:07;;;;;;;;;;;;;;;20.96;59.27;100142.00;5058878;28;748;-42
2021/07/02 02:57:32;;;;;;;;;;;;;;;20.79;60.45;100146.31;5058620;28;776;-42
2021/07/02 02:59:58;;;;;;;;;;;;;;;20.70;61.62;100150.97;5057876;28;1913;-43
2021/07/02 03:02:24;;;;;;;;;;;;;;;20.32;60.89;100146.66;5040594;28;1227;-43
2021/07/02 03:04:54;;;;;;;;;;;;;;;20.59;61.25;100147.63;5040663;28;1098;-42
2021/07/02 03:07:21;;;;;;;;;;;;;;;20.85;62.15;100147.78;5040254;28;1330;-41
2021/07/02 03:09:47;;;;;;;;;;;;;;;21.11;61.38;100154.56;5058352;28;759;-43
2021/07/02 03:12:12;;;;;;;;;;;;;;;21.11;61.36;100155.41;5058310;28;835;-38
2021/07/02 03:14:39;;;;;;;;;;;;;;;21.20;61.15;100161.75;5057326;28;888;-38
2021/07/02 03:17:05;;;;;;;;;;;;;;;21.10;61.56;100181.41;5040732;28;1322;-39
2021/07/02 03:19:36;;;;;;;;;;;;;;;20.94;62.26;100180.19;5058258;28;1973;-39
2021/07/02 03:22:02;;;;;;;;;;;;;;;20.73;61.50;100183.47;5057857;28;768;-42
2021/07/02 03:24:29;;;;;;;;;;;;;;;20.61;61.71;100186.81;5039164;28;1273;-42
2021/07/02 03:26:55;;;;;;;;;;;;;;;20.85;63.54;100186.47;5040333;28;1230;-45
2021/07/02 03:29:23;;;;;;;;;;;;;;;21.16;62.40;100191.19;5057210;28;998;-39
2021/07/02 03:31:49;;;;;;;;;;;;;;;21.10;62.31;100202.72;5057917;28;791;-39
2021/07/02 03:34:15;;;;;;;;;;;;;;;21.27;61.65;100197.25;5057560;28;792;-39
2021/07/02 03:36:41;;;;;;;;;;;;;;;21.11;62.37;100191.34;5057633;28;792;-39
2021/07/02 03:39:07;;;;;;;;;;;;;;;20.95;62.56;100206.69;5057811;28;1988;-39
2021/07/02 03:41:33;;;;;;;;;;;;;;;20.43;60.88;100201.63;5057671;28;776;-39
2021/07/02 03:43:59;;;;;;;;;;;;;;;20.88;63.25;100200.81;5056769;28;967;-42
2021/07/02 03:46:25;;;;;;;;;;;;;;;21.17;63.19;100201.09;5057750;28;803;-39
2021/07/02 03:48:51;;;;;;;;;;;;;;;21.22;61.29;100210.41;5057641;28;772;-40
2021/07/02 03:51:17;;;;;;;;;;;;;;;21.45;61.19;100205.63;5057132;28;1359;-46
2021/07/02 03:53:42;;;;;;;;;;;;;;;21.30;61.97;100193.03;5057428;28;784;-41
2021/07/02 03:56:08;;;;;;;;;;;;;;;20.93;63.32;100200.66;5057606;28;836;-46
2021/07/02 03:58:33;;;;;;;;;;;;;;;20.85;63.49;100197.53;5057579;28;1910;-44
2021/07/02 04:00:59;;;;;;;;;;;;;;;20.73;60.06;100183.47;5038016;28;947;-45
2021/07/02 04:03:25;;;;;;;;;;;;;;;21.10;62.40;100175.88;5037266;28;807;-46
2021/07/02 04:05:50;;;;;;;;;;;;;;;21.47;62.31;100168.19;5037652;28;796;-43
2021/07/02 04:08:15;;;;;;;;;;;;;;;21.57;61.77;100166.28;5037204;28;804;-44
2021/07/02 04:10:41;;;;;;;;;;;;;;;21.83;60.74;100158.84;5037156;28;872;-50
2021/07/02 04:13:07;;;;;;;;;;;;;;;21.38;62.30;100170.13;5037289;28;864;-42
2021/07/02 04:15:33;;;;;;;;;;;;;;;21.36;62.51;100161.31;5052208;28;991;-44
2021/07/02 04:17:58;;;;;;;;;;;;;;;20.87;60.83;100155.75;5056957;28;783;-46
2021/07/02 04:20:23;;;;;;;;;;;;;;;20.57;61.94;100160.94;5057425;28;1967;-49
2021/07/02 04:22:49;;;;;;;;;;;;;;;21.24;63.30;100153.66;5056732;28;803;-49
2021/07/02 04:25:14;;;;;;;;;;;;;;;21.32;63.30;100152.03;5056833;28;1040;-47
2021/07/02 04:27:40;;;;;;;;;;;;;;;21.58;62.37;100154.09;5057318;28;821;-45
2021/07/02 04:30:06;;;;;;;;;;;;;;;21.49;62.47;100154.84;5056686;28;1002;-48
2021/07/02 04:32:31;;;;;;;;;;;;;;;21.01;64.25;100144.59;5056728;28;776;-48
2021/07/02 04:34:57;;;;;;;;;;;;;;;21.13;62.20;100147.59;5056034;28;768;-42
2021/07/02 04:37:23;;;;;;;;;;;;;;;20.96;59.37;100147.53;5056340;28;748;-46
2021/07/02 04:39:48;;;;;;;;;;;;;;;20.94;62.46;100160.84;5056525;28;1905;-40
2021/07/02 04:42:13;;;;;;;;;;;;;;;21.13;64.39;100164.19;5056725;28;749;-44
2021/07/02 04:44:39;;;;;;;;;;;;;;;21.49;63.41;100171.44;5055960;28;927;-46
2021/07/02 04:47:05;;;;;;;;;;;;;;;21.75;62.06;100169.91;5056517;28;733;-45
2021/07/02 04:49:31;;;;;;;;;;;;;;;21.19;61.93;100167.59;5056729;28;823;-45
2021/07/02 04:51:56;;;;;;;;;;;;;;;21.31;62.97;100167.00;5056370;28;814;-45
2021/07/02 04:54:22;;;;;;;;;;;;;;;21.11;61.29;100168.38;5055818;28;841;-46
2021/07/02 04:56:47;;;;;;;;;;;;;;;21.13;59.20;100164.19;5056536;28;784;-47
2021/07/02 04:59:13;;;;;;;;;;;;;;;21.47;62.36;100167.38;5055866;28;1993;-46
2021/07/02 05:01:39;;;;;;;;;;;;;;;21.71;63.73;100158.66;5056272;28;748;-43
2021/07/02 05:04:04;;;;;;;;;;;;;;;21.95;63.01;100154.59;5056391;28;760;-48
2021/07/02 05:06:30;;;;;;;;;;;;;;;21.91;62.79;100154.47;5055875;28;807;-51
2021/07/02 05:08:55;;;;;;;;;;;;;;;21.76;63.81;100144.66;5038524;28;764;-47
2021/07/02 05:11:21;;;;;;;;;;;;;;;21.76;62.59;100146.63;5056358;28;800;-44
2021/07/02 05:13:46;;;;;;;;;;;;;;;20.94;59.48;100144.25;5055841;28;1003;-45
2021/07/02 05:16:12;;;;;;;;;;;;;;;21.05;59.78;100151.13;5051038;28;1253;-47
2021/07/02 05:18:37;;;;;;;;;;;;;;;20.66;61.55;100149.94;5043567;28;1906;-46
2021/07/02 05:21:03;;;;;;;;;;;;;;;20.58;60.01;100153.47;5035867;28;764;-47
2021/07/02 05:23:28;;;;;;;;;;;;;;;20.54;58.03;100146.94;5036107;28;872;-50
2021/07/02 05:25:53;;;;;;;;;;;;;;;20.46;56.60;100146.56;5035970;28;1223;-47
2021/07/02 05:28:19;;;;;;;;;;;;;;;20.55;55.75;100143.06;5036099;28;811;-45
2021/07/02 05:30:44;;;;;;;;;;;;;;;20.68;57.01;100156.00;5049363;28;1255;-51
2021/07/02 05:33:10;;;;;;;;;;;;;;;20.76;57.92;100154.41;5055987;28;804;-51
2021/07/02 05:35:35;;;;;;;;;;;;;;;20.78;58.18;100158.50;5055450;28;784;-50
2021/07/02 05:38:01;;;;;;;;;;;;;;;20.74;58.47;100170.50;5056007;28;805;-44
2021/07/02 05:40:26;;;;;;;;;;;;;;;20.85;58.75;100166.34;5055994;28;1919;-40
2021/07/02 05:42:52;;;;;;;;;;;;;;;20.94;58.64;100166.38;5055761;28;816;-48
2021/07/02 05:45:17;;;;;;;;;;;;;;;20.85;58.77;100158.03;5042091;28;916;-41
2021/07/02 05:47:48;;;;;;;;;;;;;;;20.83;58.98;100150.06;5038569;28;820;-49
2021/07/02 05:50:14;;;;;;;;;;;;;;;20.98;58.69;100137.75;5039532;28;916;-47
2021/07/02 05:52:39;;;;;;;;;;;;;;;21.14;58.52;100142.88;5039920;28;804;-46
2021/07/02 05:55:05;;;;;;;;;;;;;;;20.81;59.00;100146.81;5039892;28;741;-47
2021/07/02 05:57:31;;;;;;;;;;;;;;;20.79;59.60;100149.06;5039255;28;792;-44
2021/07/02 05:59:56;;;;;;;;;;;;;;;20.60;58.59;100140.16;5039871;28;1918;-51
2021/07/02 06:02:22;;;;;;;;;;;;;;;20.30;61.21;100153.59;5039955;28;752;-47
2021/07/02 06:04:47;;;;;;;;;;;;;;;20.69;60.19;100160.38;5039497;28;756;-44
2021/07/02 06:07:12;;;;;;;;;;;;;;;20.91;61.17;100155.97;5039619;28;765;-55
2021/07/02 06:09:38;;;;;;;;;;;;;;;21.34;61.29;100150.56;5039599;28;848;-47
2021/07/02 06:12:04;;;;;;;;;;;;;;;21.12;63.38;100148.72;5039213;28;748;-50
2021/07/02 06:14:30;;;;;;;;;;;;;;;21.19;63.28;100140.75;5046357;28;1002;-44
2021/07/02 06:16:55;;;;;;;;;;;;;;;21.02;61.67;100135.19;5059275;28;768;-47
2021/07/02 06:19:21;;;;;;;;;;;;;;;21.02;59.99;100138.75;5058977;28;1914;-45
2021/07/02 06:21:46;;;;;;;;;;;;;;;21.49;63.04;100138.25;5059663;28;772;-43
2021/07/02 06:24:12;;;;;;;;;;;;;;;21.77;64.77;100143.53;5058879;28;1183;-47
2021/07/02 06:26:37;;;;;;;;;;;;;;;22.15;64.78;100131.00;5059104;28;812;-48
2021/07/02 06:29:03;;;;;;;;;;;;;;;22.11;64.85;100146.63;5059083;28;959;-47
2021/07/02 06:31:28;;;;;;;;;;;;;;;21.90;65.94;100133.44;5059040;28;808;-44
2021/07/02 06:33:53;;;;;;;;;;;;;;;21.58;64.73;100134.72;5059046;28;824;-49
2021/07/02 06:36:19;;;;;;;;;;;;;;;21.12;59.38;100137.66;5058725;28;740;-46
2021/07/02 06:38:44;;;;;;;;;;;;;;;20.54;59.19;100133.13;5058831;28;1977;-49
2021/07/02 06:41:10;;;;;;;;;;;;;;;20.56;60.44;100139.97;5059119;28;755;-46
2021/07/02 06:43:35;;;;;;;;;;;;;;;20.54;61.16;100136.72;5058683;28;752;-44
2021/07/02 06:46:01;;;;;;;;;;;;;;;21.05;61.48;100144.81;5058493;28;915;-55
2021/07/02 06:48:26;;;;;;;;;;;;;;;21.58;61.47;100134.72;5058715;28;811;-49
2021/07/02 06:50:55;;;;;;;;;;;;;;;21.43;63.10;100141.50;5058629;28;740;-42
2021/07/02 06:53:21;;;;;;;;;;;;;;;21.49;64.43;100141.03;5058482;28;847;-45
2021/07/02 06:55:46;;;;;;;;;;;;;;;21.46;64.08;100133.38;5058983;28;747;-41
2021/07/02 06:58:12;;;;;;;;;;;;;;;20.92;62.80;100143.78;5057252;28;504;-45
2021/07/02 07:00:40;;;;;;;;;;;;;;;20.40;62.02;100142.31;5058320;28;1906;-43
2021/07/02 07:03:09;;;;;;;;;;;;;;;20.39;61.83;100151.72;5058546;28;768;-49
2021/07/02 07:05:37;;;;;;;;;;;;;;;20.38;65.63;100155.63;5058193;28;776;-48
2021/07/02 07:08:04;;;;;;;;;;;;;;;20.66;65.96;100147.19;5058715;28;1455;-47
2021/07/02 07:10:30;;;;;;;;;;;;;;;20.76;65.83;100144.19;5058485;28;831;-46
2021/07/02 07:12:56;;;;;;;;;;;;;;;20.72;65.36;100142.38;5058022;28;787;-46
2021/07/02 07:15:22;;;;;;;;;;;;;;;20.71;64.10;100146.28;5058095;28;999;-42
2021/07/02 07:17:47;;;;;;;;;;;;;;;20.78;62.38;100146.63;5058201;28;744;-49
2021/07/02 07:20:13;;;;;;;;;;;;;;;20.82;61.03;100126.34;5057735;28;1977;-50
2021/07/02 07:22:38;;;;;;;;;;;;;;;20.47;61.51;100137.16;5058114;28;803;-48
2021/07/02 07:25:04;;;;;;;;;;;;;;;20.25;59.75;100134.44;5057951;28;1064;-48
2021/07/02 07:27:29;;;;;;;;;;;;;;;20.36;61.40;100135.81;5057611;28;759;-43
2021/07/02 07:29:55;;;;;;;;;;;;;;;20.68;60.40;100131.94;5057680;28;1311;-41
2021/07/02 07:32:20;;;;;;;;;;;;;;;20.72;59.97;100132.16;5058048;28;808;-43
2021/07/02 07:34:58;;;;;;;;;;;;;;;20.92;59.08;100128.00;5057624;28;788;-45
2021/07/02 07:37:26;;;;;;;;;;;;;;;20.76;59.45;100135.91;5058167;28;807;-48
2021/07/02 07:39:51;;;;;;;;;;;;;;;20.86;58.93;100118.22;5039720;28;1918;-45
2021/07/02 07:42:17;;;;;;;;;;;;;;;20.67;59.76;100133.06;5048512;28;1128;-44
2021/07/02 07:44:43;;;;;;;;;;;;;;;20.89;58.85;100122.28;5045125;28;881;-44
2021/07/02 07:47:09;;;;;;;;;;;;;;;20.90;58.98;100121.16;5052102;28;768;-43
2021/07/02 07:49:34;;;;;;;;;;;;;;;20.80;59.80;100114.78;5057634;28;882;-42
2021/07/02 07:52:47;;;;;;;;;;;;;;;20.52;58.36;100120.47;5026350;28;1114;-43
2021/07/02 07:54:46;;;;;;;;;;;;;;;20.63;59.92;100121.00;5019967;28;1546;-43
2021/07/02 07:57:11;;;;;;;;;;;;;;;20.93;60.11;100121.34;5057112;28;772;-43
2021/07/02 07:59:37;;;;;;;;;;;;;;;21.13;61.25;100121.91;5057093;28;1913;-46
2021/07/02 08:02:02;;;;;;;;;;;;;;;21.03;62.21;100132.09;5057545;28;772;-44
2021/07/02 08:04:28;;;;;;;;;;;;;;;21.00;63.74;100129.19;5055765;28;1450;-44
2021/07/02 08:06:53;;;;;;;;;;;;;;;20.93;62.91;100129.63;5039744;28;768;-44
2021/07/02 08:09:19;;;;;;;;;;;;;;;20.71;61.08;100130.50;5057050;28;784;-46
2021/07/02 08:11:45;;;;;;;;;;;;;;;20.99;64.66;100124.78;5056875;28;685;-54
2021/07/02 08:14:10;;;;;;;;;;;;;;;21.56;65.32;100125.91;5053003;28;975;-42
2021/07/02 08:16:36;;;;;;;;;;;;;;;21.82;64.97;100121.22;5037341;28;768;-46
2021/07/02 08:19:01;;;;;;;;;;;;;;;21.80;64.39;100119.94;5036548;28;1919;-43
2021/07/02 08:21:26;;;;;;;;;;;;;;;21.61;65.03;100120.25;5037322;28;815;-42
2021/07/02 08:23:52;;;;;;;;;;;;;;;21.35;64.90;100110.72;5036839;28;1112;-43
2021/07/02 08:26:18;;;;;;;;;;;;;;;21.04;60.82;100110.78;5036717;28;847;-40
2021/07/02 08:31:28;;;;;;;;;;;;;;;20.47;61.67;100108.75;5057204;28;780;-44
2021/07/02 08:33:53;;;;;;;;;;;;;;;20.67;59.29;100107.38;5056468;28;775;-49
2021/07/02 08:36:19;;;;;;;;;;;;;;;20.41;57.79;100108.06;5056900;28;784;-42
2021/07/02 08:38:44;;;;;;;;;;;;;;;20.63;56.21;100115.47;5056520;28;1909;-44
2021/07/02 08:41:12;;;;;;;;;;;;;;;20.66;57.99;100105.75;5038762;28;1210;-43
2021/07/02 08:43:39;;;;;;;;;;;;;;;20.92;60.39;100108.66;5056619;28;991;-42
2021/07/02 08:46:05;;;;;;;;;;;;;;;21.18;61.82;100100.44;5036481;28;860;-46
2021/07/02 08:48:30;;;;;;;;;;;;;;;21.26;63.26;100098.81;5019099;28;832;-43
2021/07/02 08:50:56;;;;;;;;;;;;;;;21.59;63.63;100092.06;5018883;28;939;-46
2021/07/02 08:53:21;;;;;;;;;;;;;;;21.41;61.83;100099.53;5036675;28;740;-46
2021/07/02 08:55:47;;;;;;;;;;;;;;;21.15;59.50;100094.75;5036607;28;760;-47
2021/07/02 08:58:13;;;;;;;;;;;;;;;21.11;60.96;100102.88;5036667;28;796;-47
2021/07/02 09:00:39;;;;;;;;;;;;;;;21.33;64.83;100095.59;5035896;28;1976;-48
2021/07/02 09:03:30;;;;;;;;;;;;;;;21.51;66.25;100094.47;5036146;28;880;-48
2021/07/02 09:05:56;;;;;;;;;;;;;;;21.73;66.75;100100.22;5032690;28;1061;-50
2021/07/02 09:08:22;;;;;;;;;;;;;;;21.45;66.70;100094.97;5036244;28;807;-41
2021/07/02 09:10:47;;;;;;;;;;;;;;;21.42;65.16;100098.38;5035997;28;820;-40
2021/07/02 09:13:13;;;;;;;;;;;;;;;20.50;59.38;100097.88;5036238;28;883;-42
2021/07/02 09:15:43;;;;;;;;;;;;;;;20.47;58.98;100098.50;5044324;28;952;-44
2021/07/02 09:18:08;;;;;;;;;;;;;;;20.07;58.85;100103.94;5038332;28;901;-42
2021/07/02 09:20:40;;;;;;;;;;;;;;;19.92;58.92;100093.25;5056263;28;1913;-46
2021/07/02 09:23:06;;;;;;;;;;;;;;;20.71;60.39;100094.59;5055389;28;811;-42
2021/07/02 09:25:32;;;;;;;;;;;;;;;21.13;61.30;100092.28;5055784;28;1043;-40
2021/07/02 09:27:58;;;;;;;;;;;;;;;21.30;62.74;100090.72;5056203;28;792;-37
2021/07/02 09:30:24;;;;;;;;;;;;;;;21.67;62.98;100086.56;5055414;28;999;-37
2021/07/02 09:32:53;;;;;;;;;;;;;;;21.39;64.27;100088.75;5056073;28;759;-37
2021/07/02 09:35:20;;;;;;;;;;;;;;;21.59;65.08;100086.53;5038320;28;752;-43
2021/07/02 09:37:49;;;;;;;;;;;;;;;21.47;63.03;100084.41;5055980;28;764;-46
2021/07/02 09:40:15;;;;;;;;;;;;;;;20.87;59.73;100088.63;5055572;28;1977;-45
2021/07/02 09:42:40;;;;;;;;;;;;;;;20.94;61.65;100083.47;5055783;28;839;-43
2021/07/02 09:45:06;;;;;;;;;;;;;;;21.32;62.68;100093.97;5055764;28;1014;-42
2021/07/02 09:47:31;;;;;;;;;;;;;;;21.33;62.95;100084.53;5055856;28;954;-42
2021/07/02 09:50:15;;;;;;;;;;;;;;;21.57;61.81;100080.53;5055667;28;796;-44
2021/07/02 09:52:51;;;;;;;;;;;;;;;21.49;60.63;100077.41;5056378;28;734;-38
2021/07/02 09:55:17;;;;;;;;;;;;;;;21.31;59.71;100075.75;5055651;28;748;-41
2021/07/02 09:57:43;;;;;;;;;;;;;;;21.36;59.06;100081.13;5055667;28;791;-42
2021/07/02 10:00:09;;;;;;;;;;;;;;;21.26;58.64;100073.13;5037570;28;1905;-43
2021/07/02 10:02:56;;;;;;;;;;;;;;;21.09;59.00;100073.91;5055720;28;749;-39
2021/07/02 10:05:22;;;;;;;;;;;;;;;21.07;58.58;100071.47;5055619;28;768;-43
2021/07/02 10:08:08;;;;;;;;;;;;;;;20.92;58.97;100075.50;5055831;28;771;-43
2021/07/02 10:10:33;;;;;;;;;;;;;;;20.42;57.30;100062.72;5054858;28;2017;-45
2021/07/02 10:12:59;;;;;;;;;;;;;;;20.54;60.13;100066.84;5055627;28;681;-46
2021/07/02 10:15:25;;;;;;;;;;;;;;;20.84;59.05;100059.69;5055371;28;959;-41
2021/07/02 10:17:50;;;;;;;;;;;;;;;20.98;58.60;100057.63;5055578;28;748;-45
2021/07/02 10:20:16;;;;;;;;;;;;;;;21.25;57.80;100060.44;5055292;28;1910;-42
2021/07/02 10:22:44;;;;;;;;;;;;;;;21.11;58.14;100053.13;5055625;28;945;-41
2021/07/02 10:25:10;;;;;;;;;;;;;;;21.13;58.18;100059.13;5037654;28;1118;-40
2021/07/02 10:27:35;;;;;;;;;;;;;;;21.17;58.09;100054.59;5037786;28;784;-45
2021/07/02 10:30:00;;;;;;;;;;;;;;;21.07;58.51;100054.91;5037196;28;1074;-39
2021/07/02 10:32:26;;;;;;;;;;;;;;;20.92;59.06;100047.84;5055361;28;748;-41
2021/07/02 10:34:51;;;;;;;;;;;;;;;21.14;58.62;100041.41;5041006;28;1505;-45
2021/07/02 10:37:17;;;;;;;;;;;;;;;20.75;58.39;100045.03;5059468;28;768;-56
2021/07/02 10:39:45;;;;;;;;;;;;;;;20.35;57.53;100041.09;5021036;28;1914;-42
2021/07/02 10:42:13;;;;;;;;;;;;;;;20.77;60.64;100046.34;5021903;28;764;-38
2021/07/02 10:44:54;;;;;;;;;;;;;;;21.17;59.38;100043.53;5039024;28;948;-41
2021/07/02 10:47:22;;;;;;;;;;;;;;;21.22;59.18;100033.44;5038408;28;776;-40
2021/07/02 10:49:50;;;;;;;;;;;;;;;21.33;58.99;100037.53;5037632;28;1512;-41
2021/07/02 10:52:21;;;;;;;;;;;;;;;21.26;59.31;100031.66;5058801;28;811;-41
2021/07/02 10:54:47;;;;;;;;;;;;;;;21.20;59.59;100034.56;5058418;28;780;-37
2021/07/02 10:57:13;;;;;;;;;;;;;;;21.10;59.74;100036.84;5058917;28;831;-40
2021/07/02 10:59:41;;;;;;;;;;;;;;;20.83;57.27;100031.25;5050275;28;1979;-40
2021/07/02 11:02:06;;;;;;;;;;;;;;;21.17;60.00;100043.53;5056663;28;779;-42
2021/07/02 11:04:38;;;;;;;;;;;;;;;21.12;60.43;100045.63;5058690;28;816;-40
2021/07/02 11:07:10;;;;;;;;;;;;;;;21.37;59.67;100049.56;5058656;28;752;-40
2021/07/02 11:09:57;;;;;;;;;;;;;;;21.48;59.03;100048.09;5058173;28;836;-41
2021/07/02 11:12:30;;;;;;;;;;;;;;;21.24;59.98;100045.81;5058245;28;760;-40
2021/07/02 11:14:56;;;;;;;;;;;;;;;21.19;60.19;100055.06;5047857;28;956;-46
2021/07/02 11:17:40;;;;;;;;;;;;;;;20.81;58.98;100058.38;5038379;28;803;-41
2021/07/02 11:22:41;;;;;;;;;;;;;;;21.00;61.25;100057.31;5038240;28;801;-39
2021/07/02 11:25:07;;;;;;;;;;;;;;;21.25;60.80;100054.91;5037990;28;1026;-42
2021/07/02 11:27:43;;;;;;;;;;;;;;;21.39;59.87;100063.88;5038285;28;838;-42
2021/07/02 11:30:38;;;;;;;;;;;;;;;21.39;59.89;100057.53;5049849;28;1010;-46
2021/07/02 11:33:07;;;;;;;;;;;;;;;21.08;60.70;100056.50;5058128;28;736;-39
2021/07/02 11:35:33;;;;;;;;;;;;;;;21.13;60.46;100056.34;5058097;28;752;-42
2021/07/02 11:38:01;;;;;;;;;;;;;;;20.74;58.68;100069.09;5057579;28;883;-43
2021/07/02 11:40:27;;;;;;;;;;;;;;;20.75;61.03;100064.38;5058213;28;1914;-39
2021/07/02 11:42:52;;;;;;;;;;;;;;;21.17;60.80;100068.41;5057726;28;697;-41
2021/07/02 11:45:17;;;;;;;;;;;;;;;21.32;60.12;100072.66;5038664;28;947;-45
2021/07/02 11:47:43;;;;;;;;;;;;;;;21.34;59.88;100067.63;5058102;28;785;-43
2021/07/02 11:50:08;;;;;;;;;;;;;;;21.30;59.82;100068.59;5057879;28;867;-38
2021/07/02 11:52:34;;;;;;;;;;;;;;;21.08;60.36;100070.31;5056989;28;851;-45
2021/07/02 11:54:59;;;;;;;;;;;;;;;21.04;60.75;100063.81;5057716;28;800;-42
2021/07/02 11:57:25;;;;;;;;;;;;;;;21.00;58.75;100063.66;5057646;28;776;-46
2021/07/02 11:59:57;;;;;;;;;;;;;;;20.91;59.43;100067.53;5057057;28;2005;-40
2021/07/02 12:02:22;;;;;;;;;;;;;;;21.23;60.68;100066.28;5057277;28;820;-42
2021/07/02 12:05:00;;;;;;;;;;;;;;;21.37;59.87;100068.94;5057712;28;773;-47
2021/07/02 12:07:25;;;;;;;;;;;;;;;21.40;59.90;100068.28;5057158;28;880;-48
2021/07/02 12:09:51;;;;;;;;;;;;;;;21.52;59.18;100070.44;5057114;28;891;-40
2021/07/02 12:12:19;;;;;;;;;;;;;;;21.33;59.49;100062.41;5057203;28;784;-49
2021/07/02 12:14:45;;;;;;;;;;;;;;;21.05;60.69;100061.88;5056704;28;1021;-48
2021/07/02 12:17:10;;;;;;;;;;;;;;;20.87;60.11;100061.00;5057518;28;748;-40
2021/07/02 12:19:37;;;;;;;;;;;;;;;20.40;59.27;100069.69;5057002;28;1902;-43
2021/07/02 12:22:09;;;;;;;;;;;;;;;21.18;60.77;100067.28;5056671;28;835;-46
2021/07/02 12:24:38;;;;;;;;;;;;;;;21.30;60.33;100063.06;5057052;28;1040;-43
2021/07/02 12:27:05;;;;;;;;;;;;;;;21.23;60.32;100059.97;5056877;28;804;-48
2021/07/02 12:29:31;;;;;;;;;;;;;;;21.31;60.02;100061.94;5050048;28;1241;-40
2021/07/02 12:31:57;;;;;;;;;;;;;;;21.14;60.48;100060.75;5038868;28;1127;-46
2021/07/02 12:34:24;;;;;;;;;;;;;;;21.23;60.21;100059.97;5056485;28;908;-44
2021/07/02 12:36:54;;;;;;;;;;;;;;;21.06;59.93;100055.22;5056717;28;791;-48
2021/07/02 12:39:19;;;;;;;;;;;;;;;20.59;58.53;100067.53;5057090;28;1963;-45
2021/07/02 12:41:46;;;;;;;;;;;;;;;20.96;60.59;100059.09;5056744;28;725;-46
2021/07/02 12:44:12;;;;;;;;;;;;;;;21.19;60.95;100057.03;5056073;28;943;-40
2021/07/02 12:46:38;;;;;;;;;;;;;;;21.33;60.25;100071.50;5056514;28;720;-47
2021/07/02 12:49:17;;;;;;;;;;;;;;;21.16;60.50;100074.25;5056691;28;808;-47
2021/07/02 12:51:59;;;;;;;;;;;;;;;20.85;60.98;100073.19;5038042;28;786;-43
2021/07/02 12:57:13;;;;;;;;;;;;;;;20.50;59.56;100061.97;5040693;28;815;-47
2021/07/02 12:59:43;;;;;;;;;;;;;;;21.11;60.69;100055.88;5037708;28;1914;-50
2021/07/02 13:02:08;;;;;;;;;;;;;;;21.09;60.48;100060.09;5056392;28;787;-38